Nearby METAR Reports

   
KBNA - Nashville, TN
Updated: Jan 22 2019 5:53 pm
Overcast  
Overcast  
   Wind: SSE 12.7 mph
Wind: SSE 12.7 mph
Temperature: 51.8°F
Dew Point: 32°F
Humidity: 47%
Barometer: 30.22 inHg
Clouds: Overcast
Visibility: 10 mi
Cloud details: Overcast 1828.8 m
KBNA 222353Z 16011KT 10SM OVC060 11/00 A3022 RMK AO2 SLP236 T01060000 10133 20100 55008
KGZS - Lawrenceburg, TN
Updated: Jan 22 2019 6:35 pm
Overcast  
Overcast  
   Wind: SSE 15 mph<br />Gust to 15 mph
Wind: SSE 15 mph
Gust to 15 mph
Temperature: 50°F
Wind Chill: 44.6°F
Dew Point: 35.6°F
Humidity: 58%
Barometer: 30.22 inHg
Clouds: Overcast
Visibility: 10 mi
Cloud details: Overcast 1828.8 m
KGZS 230035Z AUTO 15013G18KT 10SM OVC060 10/02 A3022 RMK A01
KOLV - Olive Branch, MS
Updated: Jan 22 2019 5:50 pm
Overcast  
Overcast  
   Wind: SSE 16.1 mph<br />Gust to 16.1 mph
Wind: SSE 16.1 mph
Gust to 16.1 mph
Temperature: 50°F
Wind Chill: 44.6°F
Dew Point: 42.8°F
Humidity: 76%
Barometer: 30.07 inHg
Clouds: Overcast
Visibility: 10 mi
Cloud details: Overcast 2133.6 m
KOLV 222350Z 16014G23KT 10SM OVC070 10/06 A3007
KCHA - Chattanooga, TN
Updated: Jan 22 2019 5:53 pm
Overcast  
Overcast  
   Wind: SSE 5.8 mph
Wind: SSE 5.8 mph
Temperature: 44.6°F
Wind Chill: 41°F
Dew Point: 21.2°F
Humidity: 39%
Barometer: 30.38 inHg
Clouds: Overcast
Visibility: 10 mi
Cloud details: Mostly Cloudy 1066.8 m,
Overcast 1828.8 m
KCHA 222353Z 16005KT 10SM BKN035 OVC060 07/M06 A3038 RMK AO2 SLP291 T00671061 10089 20067 55000
KMEM - Memphis, TN
Updated: Jan 22 2019 5:54 pm
Overcast  
Overcast  
   Wind: SSE 18.4 mph<br />Gust to 18.4 mph
Wind: SSE 18.4 mph
Gust to 18.4 mph
Temperature: 51.8°F
Dew Point: 42.8°F
Humidity: 72%
Barometer: 30.06 inHg
Clouds: Overcast
Visibility: 10 mi
Cloud details: Overcast 2133.6 m
KMEM 222354Z 16016G24KT 10SM OVC070 11/06 A3006 RMK AO2 SLP180 T01060061 10111 20089 55004
KTYS - Knoxville, TN
Updated: Jan 22 2019 5:53 pm
Overcast  
Overcast  
   Wind: East 3.5 mph
Wind: East 3.5 mph
Temperature: 42.8°F
Wind Chill: 41°F
Dew Point: 21.2°F
Humidity: 42%
Barometer: 30.34 inHg
Clouds: Overcast
Visibility: 10 mi
Cloud details: Mostly Cloudy 1341.1 m,
Overcast 1676.4 m
KTYS 222353Z 09003KT 10SM BKN044 OVC055 06/M06 A3034 RMK AO2 SLP281 T00611061 10083 20033 55008

Script developed by  Saratoga-weather.org Adapted for the template by  Weerstation Leuven